Time;durP1;ratioP1;P1;durP2;ratioP2;P2;SDS_P1;SDS_P2;PMS_P1;PMS_P2;Temp;Humidity;BMP_temperature;BMP_pressure;BME280_temperature;BME280_humidity;BME280_pressure;Samples;Min_cycle;Max_cycle;Signal;HPM_P1;HPM_P2
2023/08/12 00:00:13;;;;;;;11.03;2.93;;;18.20;99.90;;;;;;5092378;28;20433;-64
2023/08/12 00:02:40;;;;;;;6.80;2.30;;;18.20;99.90;;;;;;5082428;28;20207;-65
2023/08/12 00:05:06;;;;;;;6.30;3.50;;;18.20;99.90;;;;;;5072187;28;20554;-65
2023/08/12 00:07:33;;;;;;;8.67;4.07;;;18.20;99.90;;;;;;5073628;28;20427;-65
2023/08/12 00:10:01;;;;;;;5.90;2.60;;;18.20;99.90;;;;;;5083492;28;20423;-64
2023/08/12 00:12:27;;;;;;;7.00;2.73;;;18.20;99.90;;;;;;5080806;28;20529;-64
2023/08/12 00:14:52;;;;;;;24.30;3.50;;;18.20;99.90;;;;;;5075815;28;20951;-64
2023/08/12 00:17:18;;;;;;;3.90;2.90;;;18.10;99.90;;;;;;5092485;28;20419;-63
2023/08/12 00:19:43;;;;;;;5.77;3.03;;;18.10;99.90;;;;;;5074928;28;20284;-63
2023/08/12 00:22:09;;;;;;;8.40;3.37;;;18.10;99.90;;;;;;5072096;28;20193;-64
2023/08/12 00:24:35;;;;;;;4.77;2.50;;;18.00;99.90;;;;;;5071340;28;20531;-63
2023/08/12 00:27:00;;;;;;;7.93;3.50;;;18.00;99.90;;;;;;5071312;28;20704;-64
2023/08/12 00:29:26;;;;;;;5.23;2.53;;;18.00;99.90;;;;;;5085328;28;20201;-63
2023/08/12 00:31:51;;;;;;;7.87;3.37;;;18.00;99.90;;;;;;5071463;28;20201;-64
2023/08/12 00:34:17;;;;;;;6.80;3.00;;;18.00;99.90;;;;;;5076139;28;20177;-63
2023/08/12 00:36:43;;;;;;;12.40;3.10;;;17.90;99.90;;;;;;5071945;28;20203;-63
2023/08/12 00:39:08;;;;;;;9.40;2.33;;;17.90;99.90;;;;;;5079655;28;20238;-63
2023/08/12 00:41:34;;;;;;;4.00;2.47;;;17.80;99.90;;;;;;5079031;28;20188;-63
2023/08/12 00:43:59;;;;;;;9.03;2.60;;;17.80;99.90;;;;;;5081972;28;20193;-63
2023/08/12 00:46:25;;;;;;;5.73;2.53;;;17.80;99.90;;;;;;5082689;28;20187;-63
2023/08/12 00:48:51;;;;;;;6.23;2.83;;;17.70;99.90;;;;;;5081663;28;20199;-63
2023/08/12 00:51:17;;;;;;;5.43;2.70;;;17.70;99.90;;;;;;5082547;28;20495;-64
2023/08/12 00:53:46;;;;;;;5.77;2.10;;;17.70;99.90;;;;;;5080308;28;20478;-63
2023/08/12 00:56:12;;;;;;;4.60;2.30;;;17.70;99.90;;;;;;5080402;28;20249;-63
2023/08/12 00:58:39;;;;;;;6.00;3.33;;;17.70;99.90;;;;;;5087491;28;20423;-63
2023/08/12 01:01:05;;;;;;;10.13;3.70;;;17.70;99.90;;;;;;5080608;28;20423;-63
2023/08/12 01:03:31;;;;;;;3.73;2.00;;;17.70;99.90;;;;;;5070852;28;20440;-64
2023/08/12 01:05:57;;;;;;;2.80;1.73;;;17.70;99.90;;;;;;5081682;28;20180;-63
2023/08/12 01:08:28;;;;;;;8.73;2.57;;;17.70;99.90;;;;;;5083640;28;20193;-63
2023/08/12 01:11:01;;;;;;;4.23;2.03;;;17.70;99.90;;;;;;5072957;28;20208;-63
2023/08/12 01:13:38;;;;;;;6.23;2.90;;;17.70;99.90;;;;;;5070456;28;20501;-63
2023/08/12 01:16:07;;;;;;;5.43;2.00;;;17.70;99.90;;;;;;5085155;28;20480;-63
2023/08/12 01:18:33;;;;;;;4.20;2.33;;;17.70;99.90;;;;;;5065277;28;20776;-63
2023/08/12 01:21:03;;;;;;;10.77;3.00;;;17.70;99.90;;;;;;5084784;28;20429;-64
2023/08/12 01:23:29;;;;;;;7.27;2.63;;;17.70;99.90;;;;;;5078806;28;21100;-63
2023/08/12 01:25:54;;;;;;;6.63;3.00;;;17.70;99.90;;;;;;5075845;28;20421;-63
2023/08/12 01:28:20;;;;;;;6.83;3.30;;;17.70;99.90;;;;;;5078535;28;20553;-64
2023/08/12 01:30:49;;;;;;;6.00;2.40;;;17.70;99.90;;;;;;5089374;28;20263;-63
2023/08/12 01:33:26;;;;;;;4.03;2.07;;;17.70;99.90;;;;;;5078493;28;20219;-63
2023/08/12 01:35:58;;;;;;;7.67;2.33;;;17.70;99.90;;;;;;5070745;28;20878;-63
2023/08/12 01:38:28;;;;;;;5.10;2.93;;;17.70;99.90;;;;;;5081709;28;20453;-64
2023/08/12 01:40:54;;;;;;;3.67;2.33;;;17.80;99.90;;;;;;5072362;28;20415;-63
2023/08/12 01:43:20;;;;;;;4.90;2.50;;;17.80;99.90;;;;;;5069797;28;20422;-63
2023/08/12 01:45:46;;;;;;;5.27;2.30;;;17.80;99.90;;;;;;5075012;28;20729;-64
2023/08/12 01:48:11;;;;;;;4.20;2.23;;;17.80;99.90;;;;;;5079355;28;20202;-63
2023/08/12 01:50:37;;;;;;;5.80;2.80;;;17.90;99.90;;;;;;5075393;28;20192;-63
2023/08/12 01:53:03;;;;;;;4.83;2.80;;;17.90;99.90;;;;;;5091028;28;20567;-64
2023/08/12 01:55:28;;;;;;;4.50;2.40;;;17.90;99.90;;;;;;5090400;28;20196;-64
2023/08/12 01:57:54;;;;;;;6.30;2.67;;;17.90;99.90;;;;;;5086768;28;20421;-64
2023/08/12 02:00:20;;;;;;;3.93;2.30;;;17.80;99.90;;;;;;5077571;28;20215;-64
2023/08/12 02:02:46;;;;;;;4.43;2.43;;;17.80;99.90;;;;;;5079340;28;20189;-64
2023/08/12 02:05:12;;;;;;;6.23;2.87;;;17.90;99.90;;;;;;5074308;28;20212;-64
2023/08/12 02:07:38;;;;;;;5.37;2.73;;;17.90;99.90;;;;;;5079977;28;20430;-64
2023/08/12 02:10:04;;;;;;;7.57;3.30;;;17.90;99.90;;;;;;5077226;28;20419;-64
2023/08/12 02:12:29;;;;;;;3.43;2.30;;;17.90;99.90;;;;;;5074002;28;20663;-64
2023/08/12 02:14:55;;;;;;;5.57;2.70;;;17.90;99.90;;;;;;5077557;28;20267;-64
2023/08/12 02:17:20;;;;;;;7.03;2.93;;;17.90;99.90;;;;;;5075564;28;20181;-64
2023/08/12 02:19:46;;;;;;;4.97;2.33;;;17.90;99.90;;;;;;5070395;28;20180;-64
2023/08/12 02:22:12;;;;;;;13.03;3.30;;;17.90;99.90;;;;;;5072366;28;20189;-64
2023/08/12 02:24:37;;;;;;;8.67;3.37;;;18.00;99.90;;;;;;5077802;28;20191;-64
2023/08/12 02:27:03;;;;;;;6.20;3.27;;;17.90;99.90;;;;;;5083103;28;20268;-64
2023/08/12 02:29:29;;;;;;;5.83;2.90;;;18.00;99.90;;;;;;5092622;28;20180;-64
2023/08/12 02:31:54;;;;;;;4.67;2.37;;;18.00;99.90;;;;;;5082959;28;20212;-64
2023/08/12 02:34:20;;;;;;;6.70;3.63;;;18.00;99.90;;;;;;5082291;28;20255;-65
2023/08/12 02:36:45;;;;;;;4.63;2.80;;;18.00;99.90;;;;;;5083411;28;20181;-65
2023/08/12 02:39:12;;;;;;;5.37;2.93;;;18.00;99.90;;;;;;5081779;28;20192;-65
2023/08/12 02:41:37;;;;;;;7.30;3.10;;;18.10;99.90;;;;;;5083536;28;20185;-65
2023/08/12 02:44:03;;;;;;;7.90;3.03;;;18.10;99.90;;;;;;5077593;28;20417;-65
2023/08/12 02:46:29;;;;;;;5.17;2.63;;;18.20;99.90;;;;;;5083357;28;20197;-65
2023/08/12 02:48:54;;;;;;;6.73;3.20;;;18.20;99.90;;;;;;5073962;28;20211;-65
2023/08/12 02:51:20;;;;;;;4.93;2.67;;;18.30;99.90;;;;;;5085185;28;20819;-65
2023/08/12 02:53:45;;;;;;;12.30;2.80;;;18.30;99.90;;;;;;5075674;28;20211;-65
2023/08/12 02:56:11;;;;;;;7.10;2.80;;;18.30;99.90;;;;;;5073881;28;20270;-65
2023/08/12 02:58:37;;;;;;;9.03;3.33;;;18.30;99.90;;;;;;5086991;28;20191;-65
2023/08/12 03:01:04;;;;;;;6.00;2.80;;;18.30;99.90;;;;;;5084365;28;20215;-63
2023/08/12 03:03:29;;;;;;;9.57;3.90;;;18.40;99.90;;;;;;5079274;28;20528;-63
2023/08/12 03:05:55;;;;;;;5.20;2.93;;;18.40;99.90;;;;;;5082906;28;20448;-63
2023/08/12 03:08:20;;;;;;;16.97;3.67;;;18.40;99.90;;;;;;5082084;28;20541;-63
2023/08/12 03:10:46;;;;;;;4.70;2.60;;;18.40;99.90;;;;;;5078608;28;20191;-63
2023/08/12 03:13:12;;;;;;;10.93;2.63;;;18.40;99.90;;;;;;5074948;28;20208;-63
2023/08/12 03:15:41;;;;;;;4.53;2.80;;;18.30;99.90;;;;;;5073524;28;20201;-63
2023/08/12 03:18:07;;;;;;;6.60;3.63;;;18.40;99.90;;;;;;5072930;28;20174;-63
2023/08/12 03:20:33;;;;;;;6.70;2.87;;;18.40;99.90;;;;;;5073580;28;20928;-63
2023/08/12 03:23:00;;;;;;;4.03;2.33;;;18.30;99.90;;;;;;5072902;28;20185;-63
2023/08/12 03:25:25;;;;;;;5.37;2.70;;;18.40;99.90;;;;;;5072968;28;20628;-63
2023/08/12 03:27:51;;;;;;;4.60;2.70;;;18.40;99.90;;;;;;5075708;28;20513;-63
2023/08/12 03:30:17;;;;;;;4.43;2.63;;;18.40;99.90;;;;;;5073615;28;20189;-63
2023/08/12 03:32:42;;;;;;;5.80;2.60;;;18.40;99.90;;;;;;5072255;28;20713;-63
2023/08/12 03:35:08;;;;;;;4.90;2.43;;;18.30;99.90;;;;;;5077228;28;20185;-63
2023/08/12 03:37:34;;;;;;;4.63;2.60;;;18.40;99.90;;;;;;5076725;28;20783;-63
2023/08/12 03:40:00;;;;;;;18.60;3.67;;;18.50;99.90;;;;;;5083037;28;20419;-63
2023/08/12 03:42:25;;;;;;;6.30;2.50;;;18.50;99.90;;;;;;5089692;28;20220;-63
2023/08/12 03:44:51;;;;;;;5.83;3.20;;;18.50;99.90;;;;;;5082710;28;20189;-63
2023/08/12 03:47:21;;;;;;;5.43;2.90;;;18.50;99.90;;;;;;5072439;28;20704;-63
2023/08/12 03:49:47;;;;;;;4.37;2.37;;;18.50;99.90;;;;;;5072856;28;20192;-63
2023/08/12 03:52:13;;;;;;;4.57;2.43;;;18.50;99.90;;;;;;5076138;28;20462;-63
2023/08/12 03:54:38;;;;;;;7.07;2.87;;;18.60;99.90;;;;;;5082353;28;20649;-63
2023/08/12 03:57:04;;;;;;;3.60;2.03;;;18.60;99.90;;;;;;5075307;28;20234;-63
2023/08/12 03:59:30;;;;;;;6.53;2.90;;;18.60;99.90;;;;;;5092779;28;20183;-63
2023/08/12 04:01:57;;;;;;;6.30;2.97;;;18.60;99.90;;;;;;5075859;28;20185;-63
2023/08/12 04:04:23;;;;;;;6.40;2.80;;;18.60;99.90;;;;;;5082148;28;20819;-63
2023/08/12 04:06:51;;;;;;;4.60;2.70;;;18.60;99.90;;;;;;5077870;28;20500;-63
2023/08/12 04:09:18;;;;;;;6.90;3.57;;;18.70;99.90;;;;;;5080523;28;20415;-64
2023/08/12 04:11:44;;;;;;;7.10;3.10;;;18.60;99.90;;;;;;5072634;28;20431;-64
2023/08/12 04:14:10;;;;;;;7.20;3.60;;;18.60;99.90;;;;;;5075549;28;20415;-64
2023/08/12 04:16:36;;;;;;;6.67;2.90;;;18.60;99.90;;;;;;5083941;28;20420;-64
2023/08/12 04:19:02;;;;;;;5.00;2.50;;;18.70;99.90;;;;;;5080850;28;20200;-64
2023/08/12 04:21:28;;;;;;;4.80;2.80;;;18.70;99.90;;;;;;5077142;28;20278;-64
2023/08/12 04:23:53;;;;;;;5.50;3.00;;;18.80;99.90;;;;;;5080596;28;20193;-64
2023/08/12 04:26:19;;;;;;;8.57;3.77;;;18.80;99.90;;;;;;5075220;28;20501;-64
2023/08/12 04:28:45;;;;;;;8.50;3.03;;;18.80;99.90;;;;;;5083268;28;20188;-64
2023/08/12 04:31:10;;;;;;;4.70;2.27;;;18.80;99.90;;;;;;5078778;28;20211;-64
2023/08/12 04:33:36;;;;;;;5.40;3.27;;;18.90;99.90;;;;;;5082621;28;20247;-64
2023/08/12 04:36:02;;;;;;;3.77;2.63;;;18.90;99.90;;;;;;5073898;28;20211;-64
2023/08/12 04:38:27;;;;;;;9.30;3.47;;;18.90;99.90;;;;;;5082770;28;20181;-64
2023/08/12 04:40:54;;;;;;;5.90;3.20;;;19.00;99.90;;;;;;5078394;28;20606;-64
2023/08/12 04:43:20;;;;;;;4.17;2.57;;;19.00;99.90;;;;;;5080162;28;20188;-64
2023/08/12 04:45:49;;;;;;;5.40;2.40;;;19.00;99.90;;;;;;5075619;28;20904;-64
2023/08/12 04:48:15;;;;;;;7.80;2.67;;;19.10;99.90;;;;;;5080237;28;20212;-64
2023/08/12 04:50:42;;;;;;;5.93;3.57;;;19.10;99.90;;;;;;5085053;28;21175;-64
2023/08/12 04:53:08;;;;;;;9.07;2.80;;;19.00;99.90;;;;;;5071267;28;20571;-64
2023/08/12 04:55:35;;;;;;;7.27;3.07;;;19.10;99.90;;;;;;5084883;28;20534;-64
2023/08/12 04:58:01;;;;;;;6.63;3.17;;;19.10;99.90;;;;;;5082912;28;20541;-64
2023/08/12 05:00:28;;;;;;;10.10;3.13;;;19.20;99.90;;;;;;5086766;28;20469;-64
2023/08/12 05:02:53;;;;;;;4.20;2.97;;;19.20;99.90;;;;;;5071251;28;20428;-64
2023/08/12 05:05:19;;;;;;;4.23;2.70;;;19.20;99.90;;;;;;5076040;28;20813;-64
2023/08/12 05:07:48;;;;;;;7.40;2.97;;;19.10;99.90;;;;;;5091686;28;20191;-64
2023/08/12 05:10:17;;;;;;;6.10;3.03;;;19.20;99.90;;;;;;5084364;28;20233;-64
2023/08/12 05:12:44;;;;;;;8.33;3.53;;;19.20;99.90;;;;;;5070972;28;20968;-64
2023/08/12 05:15:10;;;;;;;16.90;2.70;;;19.20;99.90;;;;;;5079188;28;20897;-64
2023/08/12 05:17:36;;;;;;;5.57;2.87;;;19.20;99.90;;;;;;5073751;28;20420;-64
2023/08/12 05:20:02;;;;;;;4.93;2.83;;;19.30;99.90;;;;;;5078762;28;20427;-64
2023/08/12 05:22:27;;;;;;;6.70;3.83;;;19.30;99.90;;;;;;5076642;28;20188;-64
2023/08/12 05:24:53;;;;;;;4.50;2.80;;;19.40;99.90;;;;;;5079142;28;20215;-64
2023/08/12 05:27:18;;;;;;;5.37;2.87;;;19.40;99.90;;;;;;5085726;28;20223;-64
2023/08/12 05:29:44;;;;;;;5.93;2.67;;;19.40;99.90;;;;;;5082703;28;20212;-64
2023/08/12 05:32:10;;;;;;;6.80;2.90;;;19.40;99.90;;;;;;5080125;28;20201;-64
2023/08/12 05:34:35;;;;;;;7.87;4.27;;;19.40;99.90;;;;;;5083525;28;20204;-64
2023/08/12 05:37:01;;;;;;;6.47;3.20;;;19.40;99.90;;;;;;5078216;28;20197;-64
2023/08/12 05:39:26;;;;;;;6.90;2.83;;;19.50;99.90;;;;;;5085213;28;20195;-64
2023/08/12 05:41:52;;;;;;;7.43;3.70;;;19.40;99.90;;;;;;5085408;28;20199;-64
2023/08/12 05:44:18;;;;;;;11.00;3.60;;;19.50;99.90;;;;;;5090148;28;20191;-64
2023/08/12 05:46:43;;;;;;;3.37;2.00;;;19.50;99.90;;;;;;5078418;28;20185;-64
2023/08/12 05:49:09;;;;;;;7.50;2.80;;;19.50;99.90;;;;;;5090283;28;20510;-64
2023/08/12 05:51:35;;;;;;;17.70;3.20;;;19.60;99.90;;;;;;5091177;28;20213;-64
2023/08/12 05:54:01;;;;;;;3.87;2.50;;;19.60;99.90;;;;;;5090549;28;20255;-64
2023/08/12 05:56:26;;;;;;;4.53;2.70;;;19.60;99.90;;;;;;5079579;28;20204;-64
2023/08/12 05:58:52;;;;;;;5.97;2.97;;;19.60;99.90;;;;;;5088513;28;20274;-64
2023/08/12 06:01:18;;;;;;;5.63;3.17;;;19.60;99.90;;;;;;5075016;28;20181;-64
2023/08/12 06:03:44;;;;;;;4.00;2.70;;;19.60;99.90;;;;;;5074481;28;20282;-64
2023/08/12 06:06:10;;;;;;;12.67;3.90;;;19.60;99.90;;;;;;5057112;28;20889;-64
2023/08/12 06:08:35;;;;;;;6.07;3.27;;;19.70;99.90;;;;;;5082455;28;20199;-64
2023/08/12 06:11:01;;;;;;;7.70;4.00;;;19.70;99.90;;;;;;5075220;28;20189;-64
2023/08/12 06:13:27;;;;;;;5.73;3.10;;;19.80;99.90;;;;;;5086523;28;20216;-64
2023/08/12 06:15:52;;;;;;;6.87;2.87;;;19.90;99.90;;;;;;5088673;28;20181;-64
2023/08/12 06:18:18;;;;;;;4.00;2.70;;;20.10;99.90;;;;;;5074430;28;20256;-64
2023/08/12 06:20:43;;;;;;;4.53;2.20;;;20.20;99.90;;;;;;5074591;28;20528;-64
2023/08/12 06:23:09;;;;;;;5.80;3.00;;;20.30;99.90;;;;;;5092843;28;20207;-64
2023/08/12 06:25:36;;;;;;;5.37;2.80;;;20.30;99.90;;;;;;5082411;28;20611;-64
2023/08/12 06:28:04;;;;;;;6.10;3.07;;;20.30;99.90;;;;;;5076801;28;20263;-64
2023/08/12 06:30:29;;;;;;;5.37;2.80;;;20.40;99.90;;;;;;5086655;28;20422;-64
2023/08/12 06:32:55;;;;;;;5.17;3.07;;;20.60;99.90;;;;;;5086255;28;20461;-64
2023/08/12 06:35:21;;;;;;;5.43;2.70;;;20.70;99.90;;;;;;5085232;28;20177;-64
2023/08/12 06:37:47;;;;;;;3.30;2.27;;;21.00;99.90;;;;;;5075190;28;20185;-64
2023/08/12 06:40:12;;;;;;;5.67;2.90;;;21.20;99.90;;;;;;5076358;28;20177;-64
2023/08/12 06:42:38;;;;;;;4.93;2.70;;;21.40;99.90;;;;;;5078791;28;20188;-64
2023/08/12 06:45:04;;;;;;;6.33;3.47;;;21.60;99.90;;;;;;5079155;28;20612;-64
2023/08/12 06:47:30;;;;;;;4.60;2.60;;;21.90;99.90;;;;;;5084690;28;20271;-64
2023/08/12 06:49:55;;;;;;;4.40;2.50;;;22.10;99.90;;;;;;5086042;28;20505;-65
2023/08/12 06:52:21;;;;;;;5.70;2.83;;;22.20;99.90;;;;;;5074977;28;20196;-64
2023/08/12 06:54:47;;;;;;;3.60;2.47;;;22.40;99.90;;;;;;5085627;28;20177;-64
2023/08/12 06:57:12;;;;;;;4.63;2.80;;;22.60;99.90;;;;;;5083889;28;20199;-64
2023/08/12 06:59:38;;;;;;;4.00;2.40;;;22.90;99.90;;;;;;5082156;28;20234;-64
2023/08/12 07:02:04;;;;;;;4.93;2.40;;;23.20;99.90;;;;;;5073458;28;20180;-64
2023/08/12 07:04:30;;;;;;;3.40;1.97;;;23.20;99.90;;;;;;5085594;28;20172;-64
2023/08/12 07:06:55;;;;;;;16.60;3.13;;;23.20;99.90;;;;;;5076912;28;20193;-64
2023/08/12 07:09:21;;;;;;;4.63;2.63;;;23.10;99.90;;;;;;5085347;28;20187;-64
2023/08/12 07:11:47;;;;;;;5.37;2.00;;;23.40;99.90;;;;;;5077165;28;20193;-64
2023/08/12 07:14:12;;;;;;;3.83;1.87;;;23.70;99.90;;;;;;5074330;28;20173;-64
2023/08/12 07:16:38;;;;;;;5.37;2.30;;;24.10;99.90;;;;;;5080447;28;20187;-64
2023/08/12 07:19:04;;;;;;;5.97;2.30;;;24.40;99.90;;;;;;5085231;28;20641;-64
2023/08/12 07:21:29;;;;;;;2.67;1.70;;;24.60;99.90;;;;;;5074767;28;20193;-64
2023/08/12 07:23:55;;;;;;;6.07;2.60;;;24.90;99.90;;;;;;5084752;28;20619;-64
2023/08/12 07:26:20;;;;;;;4.77;2.50;;;25.10;99.90;;;;;;5075226;28;20250;-64
2023/08/12 07:28:46;;;;;;;4.77;2.67;;;25.30;99.60;;;;;;5084712;28;20656;-64
2023/08/12 07:31:12;;;;;;;4.53;2.40;;;25.60;99.40;;;;;;5087327;28;20177;-64
2023/08/12 07:33:38;;;;;;;5.10;2.60;;;26.10;99.20;;;;;;5082578;28;20295;-64
2023/08/12 07:36:03;;;;;;;3.77;2.00;;;26.20;98.90;;;;;;5084493;28;20283;-64
2023/08/12 07:38:29;;;;;;;5.63;2.53;;;26.00;97.90;;;;;;5086646;28;20184;-64
2023/08/12 07:40:54;;;;;;;3.00;2.00;;;25.50;98.00;;;;;;5084865;28;20184;-64
2023/08/12 07:43:20;;;;;;;3.87;1.97;;;25.90;98.10;;;;;;5081527;28;20263;-64
2023/08/12 07:45:52;;;;;;;3.43;1.87;;;27.00;96.80;;;;;;5072314;28;20254;-64
2023/08/12 07:48:17;;;;;;;4.13;2.15;;;28.20;95.80;;;;;;5072756;28;20177;-65
2023/08/12 07:50:43;;;;;;;2.42;1.52;;;29.20;94.10;;;;;;5072949;28;20184;-65
2023/08/12 07:53:08;;;;;;;5.07;2.10;;;29.90;91.80;;;;;;5072391;28;20581;-65
2023/08/12 07:55:35;;;;;;;2.38;1.45;;;30.50;90.90;;;;;;5072361;28;20677;-65
2023/08/12 07:58:00;;;;;;;3.83;1.73;;;31.00;90.50;;;;;;5083876;28;20190;-65
2023/08/12 08:00:26;;;;;;;13.23;2.33;;;31.70;88.50;;;;;;5074837;28;20177;-65
2023/08/12 08:02:51;;;;;;;4.68;1.80;;;31.90;84.80;;;;;;5072246;28;20186;-65
2023/08/12 08:05:17;;;;;;;5.13;1.83;;;30.70;87.10;;;;;;5085327;28;20879;-65
2023/08/12 08:07:43;;;;;;;5.10;2.53;;;30.20;87.70;;;;;;5075006;28;20184;-65
2023/08/12 08:10:09;;;;;;;7.28;2.63;;;29.70;89.80;;;;;;5082901;28;20214;-64
2023/08/12 08:12:34;;;;;;;6.50;2.15;;;29.60;90.20;;;;;;5072319;28;20219;-64
2023/08/12 08:15:00;;;;;;;3.72;1.98;;;30.00;88.70;;;;;;5080989;28;20184;-65
2023/08/12 08:17:26;;;;;;;6.07;2.70;;;29.70;87.50;;;;;;5059775;28;20208;-64
2023/08/12 08:19:51;;;;;;;3.88;1.80;;;29.70;88.30;;;;;;5072316;28;20212;-65
2023/08/12 08:22:17;;;;;;;4.20;2.58;;;30.10;88.00;;;;;;5072728;28;20208;-65
2023/08/12 08:24:43;;;;;;;3.10;1.80;;;30.60;86.60;;;;;;5072266;28;20181;-65
2023/08/12 08:27:08;;;;;;;7.60;2.65;;;31.20;85.50;;;;;;5078789;28;20191;-65
2023/08/12 08:29:34;;;;;;;4.32;2.10;;;31.80;83.00;;;;;;5079406;28;20699;-65
2023/08/12 08:32:00;;;;;;;4.95;2.08;;;31.80;82.70;;;;;;5080993;28;20180;-65
2023/08/12 08:34:25;;;;;;;3.53;2.13;;;31.70;81.70;;;;;;5080901;28;20211;-64
2023/08/12 08:36:51;;;;;;;5.88;2.90;;;31.00;83.50;;;;;;5072341;28;20176;-64
2023/08/12 08:39:16;;;;;;;3.67;2.20;;;31.20;83.90;;;;;;5072176;28;20190;-65
2023/08/12 08:41:46;;;;;;;3.35;1.88;;;31.60;84.20;;;;;;5079127;28;20237;-65
2023/08/12 08:44:15;;;;;;;3.05;2.10;;;31.20;83.40;;;;;;5071172;28;20180;-65
2023/08/12 08:46:42;;;;;;;4.13;2.63;;;30.70;84.90;;;;;;5072147;28;20176;-64
2023/08/12 08:49:08;;;;;;;4.68;2.55;;;30.20;85.90;;;;;;5071731;28;20184;-65
2023/08/12 08:51:35;;;;;;;4.22;2.20;;;30.30;88.40;;;;;;5078241;28;20197;-65
2023/08/12 08:54:04;;;;;;;3.95;2.15;;;30.80;86.70;;;;;;5081149;28;20223;-65
2023/08/12 08:56:33;;;;;;;4.28;2.40;;;31.20;86.40;;;;;;5076539;28;20287;-65
2023/08/12 08:58:58;;;;;;;3.28;2.13;;;31.50;85.40;;;;;;5084952;28;20752;-65
2023/08/12 09:01:25;;;;;;;4.15;2.47;;;30.70;85.10;;;;;;5071714;28;20177;-65
2023/08/12 09:03:55;;;;;;;4.85;2.53;;;30.90;86.00;;;;;;5071115;28;20199;-65
2023/08/12 09:06:22;;;;;;;4.10;2.15;;;31.00;85.10;;;;;;5072079;28;20184;-65
2023/08/12 09:08:50;;;;;;;4.75;1.98;;;31.50;85.20;;;;;;5080951;28;20589;-65
2023/08/12 09:11:17;;;;;;;4.63;2.25;;;31.80;83.90;;;;;;5077915;28;20181;-65
2023/08/12 09:13:43;;;;;;;4.05;2.55;;;32.00;82.40;;;;;;5071008;28;20551;-65
2023/08/12 09:16:09;;;;;;;5.38;2.58;;;32.20;82.00;;;;;;5085702;28;20180;-65
2023/08/12 09:18:36;;;;;;;4.97;2.42;;;31.40;83.80;;;;;;5070919;28;20633;-65
2023/08/12 09:21:02;;;;;;;4.97;2.30;;;30.80;84.40;;;;;;5071338;28;20184;-65
2023/08/12 09:23:28;;;;;;;10.27;2.28;;;31.40;85.20;;;;;;5070567;28;20643;-65
2023/08/12 09:25:54;;;;;;;3.22;1.98;;;31.50;84.70;;;;;;5071290;28;20259;-65
2023/08/12 09:28:20;;;;;;;6.20;2.67;;;31.10;84.10;;;;;;5078335;28;20192;-65
2023/08/12 09:30:53;;;;;;;5.50;2.30;;;30.80;86.00;;;;;;5075402;28;20662;-65
2023/08/12 09:33:26;;;;;;;3.33;1.67;;;29.60;87.90;;;;;;5069803;28;20200;-65
2023/08/12 09:35:52;;;;;;;5.45;2.55;;;29.70;89.50;;;;;;5091027;28;20198;-64
2023/08/12 09:38:17;;;;;;;4.47;2.40;;;29.60;90.30;;;;;;5080922;28;20176;-65
2023/08/12 09:40:46;;;;;;;3.60;2.10;;;29.20;90.40;;;;;;5076798;28;20188;-64
2023/08/12 09:43:11;;;;;;;3.65;2.17;;;29.10;90.20;;;;;;5079978;28;20270;-64
2023/08/12 09:45:37;;;;;;;6.18;2.17;;;28.90;90.40;;;;;;5073923;28;20597;-64
2023/08/12 09:48:03;;;;;;;5.20;1.95;;;28.70;90.40;;;;;;5080286;28;20187;-64
2023/08/12 09:50:29;;;;;;;8.02;3.13;;;28.50;92.00;;;;;;5074110;28;20185;-64
2023/08/12 09:52:56;;;;;;;5.07;2.38;;;28.30;91.20;;;;;;5070464;28;20200;-64
2023/08/12 09:55:24;;;;;;;2.47;1.60;;;28.10;91.30;;;;;;5069700;28;20267;-64
2023/08/12 09:57:54;;;;;;;6.70;2.83;;;27.80;91.60;;;;;;5080138;28;20286;-64
2023/08/12 10:00:23;;;;;;;4.43;2.60;;;27.90;92.50;;;;;;5073709;28;20185;-64
2023/08/12 10:02:51;;;;;;;2.97;2.00;;;27.90;93.10;;;;;;5070532;28;20180;-64
2023/08/12 10:05:25;;;;;;;3.60;1.60;;;28.00;92.80;;;;;;5070214;28;20220;-64
2023/08/12 10:07:52;;;;;;;3.25;1.95;;;27.80;91.80;;;;;;5074564;28;20653;-64
2023/08/12 10:10:18;;;;;;;4.93;2.58;;;27.70;92.30;;;;;;5076770;28;20184;-64
2023/08/12 10:12:43;;;;;;;3.90;2.20;;;27.70;92.10;;;;;;5069837;28;20204;-64
2023/08/12 10:15:10;;;;;;;11.77;2.38;;;27.80;93.10;;;;;;5079590;28;20263;-64
2023/08/12 10:17:36;;;;;;;4.93;2.20;;;27.70;93.50;;;;;;5087576;28;20187;-63
2023/08/12 10:20:05;;;;;;;4.57;2.50;;;27.60;93.70;;;;;;5070235;28;20172;-64
2023/08/12 10:22:32;;;;;;;3.65;2.20;;;27.70;93.30;;;;;;5070108;28;20189;-64
2023/08/12 10:24:59;;;;;;;4.30;2.42;;;27.90;93.30;;;;;;5069926;28;20198;-64
2023/08/12 10:27:26;;;;;;;2.58;1.77;;;27.80;93.90;;;;;;5070260;28;20176;-64
2023/08/12 10:29:51;;;;;;;4.78;2.67;;;27.70;94.10;;;;;;5090586;28;20254;-64
2023/08/12 10:32:17;;;;;;;4.30;2.38;;;27.90;93.60;;;;;;5089530;28;20283;-64
2023/08/12 10:34:43;;;;;;;4.68;2.53;;;27.80;93.60;;;;;;5074009;28;20180;-64
2023/08/12 10:37:11;;;;;;;7.70;2.92;;;27.90;93.70;;;;;;5069833;28;20380;-64
2023/08/12 10:39:37;;;;;;;9.70;2.20;;;28.10;94.10;;;;;;5077551;28;20168;-64
2023/08/12 10:42:02;;;;;;;3.55;1.95;;;28.00;93.90;;;;;;5075663;28;20259;-64
2023/08/12 10:44:51;;;;;;;2.42;1.60;;;28.10;94.20;;;;;;5073461;28;20525;-64
2023/08/12 10:47:16;;;;;;;4.10;2.35;;;28.30;92.60;;;;;;5077320;28;20202;-64
2023/08/12 10:49:50;;;;;;;7.72;1.98;;;28.60;92.20;;;;;;5083868;28;20184;-64
2023/08/12 10:52:29;;;;;;;6.28;2.42;;;28.60;92.20;;;;;;5077837;28;20204;-64
2023/08/12 10:54:55;;;;;;;3.92;2.45;;;28.90;91.30;;;;;;5093620;28;20199;-64
2023/08/12 10:57:40;;;;;;;4.50;1.95;;;28.80;91.00;;;;;;5073202;28;20204;-64
2023/08/12 11:00:13;;;;;;;3.60;1.67;;;29.00;91.60;;;;;;5072207;28;20195;-64
2023/08/12 11:02:40;;;;;;;3.72;2.13;;;29.40;90.70;;;;;;5072405;28;20673;-64
2023/08/12 11:05:11;;;;;;;4.70;2.05;;;29.50;90.30;;;;;;5072364;28;20184;-66
2023/08/12 11:07:40;;;;;;;3.83;2.50;;;29.20;90.30;;;;;;5072916;28;20207;-64
2023/08/12 11:10:13;;;;;;;4.43;1.77;;;29.30;90.80;;;;;;5081750;28;20184;-64
2023/08/12 11:12:41;;;;;;;8.18;2.45;;;29.50;91.50;;;;;;5075540;28;20217;-64
2023/08/12 11:15:07;;;;;;;3.50;2.17;;;29.40;91.60;;;;;;5081364;28;20260;-64
2023/08/12 11:17:37;;;;;;;3.40;2.05;;;29.60;90.50;;;;;;5076752;28;20634;-64
2023/08/12 11:20:06;;;;;;;3.38;2.22;;;29.60;90.50;;;;;;5072475;28;20179;-64
2023/08/12 11:22:40;;;;;;;7.28;2.40;;;29.70;90.40;;;;;;5072182;28;20176;-64
2023/08/12 11:25:08;;;;;;;6.05;2.47;;;29.50;90.00;;;;;;5072028;28;20180;-64
2023/08/12 11:27:52;;;;;;;6.10;2.30;;;29.50;90.80;;;;;;5071656;28;20234;-64
2023/08/12 11:30:22;;;;;;;3.15;1.95;;;29.50;90.20;;;;;;5072168;28;20601;-64
2023/08/12 11:32:49;;;;;;;2.40;1.38;;;29.10;90.30;;;;;;5086225;28;20742;-64
2023/08/12 11:35:16;;;;;;;5.03;2.38;;;28.90;90.50;;;;;;5088936;28;20211;-64
2023/08/12 11:37:50;;;;;;;6.72;2.40;;;28.70;91.40;;;;;;5074380;28;20507;-64
2023/08/12 11:40:17;;;;;;;4.13;2.08;;;28.70;90.40;;;;;;5078828;28;20178;-64
2023/08/12 11:42:44;;;;;;;3.95;2.10;;;28.80;90.10;;;;;;5086658;28;20188;-64
2023/08/12 11:45:11;;;;;;;5.47;1.95;;;28.80;90.40;;;;;;5085465;28;20184;-64
2023/08/12 11:47:38;;;;;;;5.03;2.03;;;29.00;90.10;;;;;;5079093;28;20199;-64
2023/08/12 11:50:08;;;;;;;3.47;1.67;;;29.30;90.10;;;;;;5079064;28;20188;-64
2023/08/12 11:52:35;;;;;;;5.65;2.13;;;29.50;88.30;;;;;;5072481;28;20678;-64
2023/08/12 11:55:01;;;;;;;2.53;1.40;;;29.50;88.80;;;;;;5070932;28;20640;-64
2023/08/12 11:57:29;;;;;;;3.50;1.80;;;29.10;90.20;;;;;;5079310;28;20209;-64
2023/08/12 12:00:08;;;;;;;6.75;2.38;;;29.10;90.10;;;;;;5078733;28;20564;-64
2023/08/12 12:02:38;;;;;;;11.02;2.63;;;28.80;89.90;;;;;;5082933;28;20709;-64
2023/08/12 12:05:11;;;;;;;4.18;1.80;;;28.60;90.70;;;;;;5074829;28;20184;-64
2023/08/12 12:07:38;;;;;;;8.23;2.40;;;28.70;90.10;;;;;;5089276;28;20532;-64
2023/08/12 12:10:05;;;;;;;4.00;1.70;;;28.60;90.80;;;;;;5080723;28;20223;-64
2023/08/12 12:12:36;;;;;;;4.88;2.10;;;28.30;91.40;;;;;;5075612;28;20320;-63
2023/08/12 12:15:03;;;;;;;4.90;2.80;;;28.10;91.50;;;;;;5080079;28;20256;-64
2023/08/12 12:17:28;;;;;;;12.95;2.58;;;28.10;93.40;;;;;;5077102;28;20181;-64
2023/08/12 12:19:59;;;;;;;2.47;1.52;;;27.90;94.40;;;;;;5077282;28;20249;-64
2023/08/12 12:22:33;;;;;;;3.47;1.87;;;26.90;94.20;;;;;;5092315;28;20199;-63
2023/08/12 12:25:07;;;;;;;11.00;1.43;;;26.40;95.30;;;;;;5085158;28;20247;-63
2023/08/12 12:27:33;;;;;;;5.07;1.47;;;25.80;97.90;;;;;;5076072;28;20183;-63
2023/08/12 12:29:59;;;;;;;11.90;2.80;;;25.40;99.90;;;;;;5084674;28;20181;-64
2023/08/12 12:32:26;;;;;;;4.60;1.90;;;24.70;99.90;;;;;;5073056;28;20204;-64
2023/08/12 12:34:52;;;;;;;4.30;2.20;;;23.90;99.90;;;;;;5078302;28;20411;-64
2023/08/12 12:37:18;;;;;;;6.43;2.70;;;23.30;99.90;;;;;;5071704;28;20422;-64
2023/08/12 12:39:44;;;;;;;10.40;4.20;;;22.90;99.90;;;;;;5080623;28;20418;-64
2023/08/12 12:42:10;;;;;;;7.23;2.27;;;22.70;99.90;;;;;;5082547;28;20175;-64